createdAt,value
2019-01-18T00:01:13.653Z,99.90
2019-01-18T00:03:42.665Z,99.90
2019-01-18T00:06:11.669Z,99.90
2019-01-18T00:08:40.901Z,99.90
2019-01-18T00:11:09.822Z,99.90
2019-01-18T00:13:38.695Z,99.90
2019-01-18T00:16:07.711Z,99.90
2019-01-18T00:18:37.096Z,99.90
2019-01-18T00:21:06.124Z,99.90
2019-01-18T00:23:35.052Z,99.90
2019-01-18T00:26:04.478Z,99.90
2019-01-18T00:28:33.404Z,99.90
2019-01-18T00:31:02.346Z,99.90
2019-01-18T00:33:31.426Z,99.90
2019-01-18T00:36:00.359Z,99.90
2019-01-18T00:38:29.414Z,99.90
2019-01-18T00:40:58.346Z,99.90
2019-01-18T00:43:27.201Z,99.90
2019-01-18T00:45:56.027Z,99.90
2019-01-18T00:48:25.006Z,99.90
2019-01-18T00:50:54.061Z,99.90
2019-01-18T00:53:23.063Z,99.90
2019-01-18T00:55:52.304Z,99.90
2019-01-18T00:58:21.234Z,99.90
2019-01-18T01:00:50.119Z,99.90
2019-01-18T01:03:19.127Z,99.90
2019-01-18T01:05:48.142Z,99.90
2019-01-18T01:08:16.997Z,99.90
2019-01-18T01:10:46.934Z,99.90
2019-01-18T01:13:15.977Z,99.90
2019-01-18T01:15:44.971Z,99.90
2019-01-18T01:18:14.045Z,99.90
2019-01-18T01:20:42.842Z,99.90
2019-01-18T01:23:11.985Z,99.90
2019-01-18T01:25:41.015Z,99.90
2019-01-18T01:28:09.972Z,99.90
2019-01-18T01:30:38.907Z,99.90
2019-01-18T01:33:08.389Z,99.90
2019-01-18T01:35:37.222Z,99.90
2019-01-18T01:38:06.246Z,99.90
2019-01-18T01:40:35.274Z,99.90
2019-01-18T01:43:04.711Z,99.90
2019-01-18T01:45:33.705Z,99.90
2019-01-18T01:48:02.679Z,99.90
2019-01-18T01:50:31.921Z,99.90
2019-01-18T01:53:00.830Z,99.90
2019-01-18T01:55:29.739Z,99.90
2019-01-18T01:57:58.753Z,99.90
2019-01-18T02:00:29.120Z,99.90
2019-01-18T02:02:58.013Z,99.90
2019-01-18T02:05:27.091Z,99.90
2019-01-18T02:07:56.350Z,99.90
2019-01-18T02:10:25.347Z,99.90
2019-01-18T02:12:54.320Z,99.90
2019-01-18T02:15:25.309Z,99.90
2019-01-18T02:17:54.399Z,99.90
2019-01-18T02:20:23.764Z,99.90
2019-01-18T02:22:53.023Z,99.90
2019-01-18T02:25:22.034Z,99.90
2019-01-18T02:27:51.145Z,99.90
2019-01-18T02:30:25.461Z,99.90
2019-01-18T02:32:54.578Z,99.90
2019-01-18T02:35:23.539Z,99.90
2019-01-18T02:37:53.074Z,99.90
2019-01-18T02:40:22.007Z,99.90
2019-01-18T02:42:51.050Z,99.90
2019-01-18T02:45:21.414Z,99.90
2019-01-18T02:47:50.947Z,99.90
2019-01-18T02:50:20.002Z,99.90
2019-01-18T02:52:48.968Z,99.90
2019-01-18T02:55:18.609Z,99.90
2019-01-18T02:57:47.629Z,99.90
2019-01-18T03:00:18.663Z,99.90
2019-01-18T03:02:47.666Z,99.90
2019-01-18T03:05:17.744Z,99.90
2019-01-18T03:07:46.754Z,99.90
2019-01-18T03:10:19.053Z,99.90
2019-01-18T03:12:48.163Z,99.90
2019-01-18T03:15:17.146Z,99.90
2019-01-18T03:17:46.933Z,99.90
2019-01-18T03:20:16.634Z,99.90
2019-01-18T03:22:45.627Z,99.90
2019-01-18T03:25:20.410Z,99.90
2019-01-18T03:27:49.317Z,99.90
2019-01-18T03:30:20.646Z,99.90
2019-01-18T03:32:49.404Z,99.90
2019-01-18T03:35:19.349Z,99.90
2019-01-18T03:37:48.444Z,99.90
2019-01-18T03:40:18.261Z,99.90
2019-01-18T03:42:47.809Z,99.90
2019-01-18T03:45:17.997Z,99.90
2019-01-18T03:47:47.434Z,99.90
2019-01-18T03:50:19.123Z,99.90
2019-01-18T03:52:48.127Z,99.90
2019-01-18T03:55:17.310Z,99.90
2019-01-18T03:57:46.213Z,99.90
2019-01-18T04:00:17.383Z,99.90
2019-01-18T04:02:46.174Z,99.90
2019-01-18T04:05:15.231Z,99.90
2019-01-18T04:07:44.198Z,99.90
2019-01-18T04:10:14.763Z,99.90
2019-01-18T04:12:43.709Z,99.90
2019-01-18T04:15:14.522Z,99.90
2019-01-18T04:17:43.485Z,99.90
2019-01-18T04:20:13.282Z,99.90
2019-01-18T04:22:42.229Z,99.90
2019-01-18T04:25:13.811Z,99.90
2019-01-18T04:27:42.807Z,99.90
2019-01-18T04:30:14.197Z,99.90
2019-01-18T04:32:43.210Z,99.90
2019-01-18T04:35:12.784Z,99.90
2019-01-18T04:37:41.765Z,99.90
2019-01-18T04:40:14.109Z,99.90
2019-01-18T04:42:44.047Z,99.90
2019-01-18T04:45:18.835Z,99.90
2019-01-18T04:47:47.600Z,99.90
2019-01-18T04:50:19.060Z,99.90
2019-01-18T04:52:52.142Z,99.90
2019-01-18T04:55:21.607Z,99.90
2019-01-18T04:57:50.909Z,99.90
2019-01-18T05:01:14.716Z,99.90
2019-01-18T05:03:43.916Z,99.90
2019-01-18T05:10:06.293Z,99.90
2019-01-18T05:12:35.453Z,99.90
2019-01-18T05:15:30.770Z,99.90
2019-01-18T05:17:59.724Z,99.90
2019-01-18T05:20:28.991Z,99.90
2019-01-18T05:23:17.171Z,99.90
2019-01-18T05:25:51.174Z,99.90
2019-01-18T05:28:20.656Z,99.90
2019-01-18T05:30:50.321Z,99.90
2019-01-18T05:33:20.865Z,99.90
2019-01-18T05:35:50.129Z,99.90
2019-01-18T05:38:22.172Z,99.90
2019-01-18T05:40:51.690Z,99.90
2019-01-18T05:43:24.125Z,99.90
2019-01-18T05:45:53.584Z,99.90
2019-01-18T05:48:23.186Z,99.90
2019-01-18T05:54:01.835Z,99.90
2019-01-18T05:56:51.310Z,99.90
2019-01-18T05:59:21.124Z,99.90
2019-01-18T06:01:50.446Z,99.90
2019-01-18T06:04:29.591Z,99.90
2019-01-18T06:06:58.883Z,99.90
2019-01-18T06:09:28.086Z,99.90
2019-01-18T06:11:57.363Z,99.90
2019-01-18T06:14:31.429Z,99.90
2019-01-18T06:17:00.902Z,99.90
2019-01-18T06:19:30.054Z,99.90
2019-01-18T06:21:59.463Z,99.90
2019-01-18T06:24:28.923Z,99.90
2019-01-18T06:26:58.326Z,99.90
2019-01-18T06:29:30.370Z,99.90
2019-01-18T06:32:12.062Z,99.90
2019-01-18T06:34:58.566Z,99.90
2019-01-18T06:40:15.700Z,99.90
2019-01-18T06:43:16.691Z,99.90
2019-01-18T06:46:47.764Z,99.90
2019-01-18T06:49:19.663Z,99.90
2019-01-18T06:51:48.886Z,99.90
2019-01-18T06:54:18.286Z,99.90
2019-01-18T06:56:47.632Z,99.90
2019-01-18T06:59:21.257Z,99.90
2019-01-18T07:01:52.481Z,99.90
2019-01-18T07:04:22.183Z,99.90
2019-01-18T07:06:51.469Z,99.90
2019-01-18T07:09:23.811Z,99.90
2019-01-18T07:11:52.934Z,99.90
2019-01-18T07:14:22.493Z,99.90
2019-01-18T07:16:51.752Z,99.90
2019-01-18T07:19:38.406Z,99.90
2019-01-18T07:22:09.411Z,99.90
2019-01-18T07:24:38.714Z,99.90
2019-01-18T07:27:07.938Z,99.90
2019-01-18T07:29:37.085Z,99.90
2019-01-18T07:32:06.685Z,99.90
2019-01-18T07:34:39.629Z,99.90
2019-01-18T07:37:08.893Z,99.90
2019-01-18T07:39:38.219Z,99.90
2019-01-18T07:42:07.411Z,99.90
2019-01-18T07:44:36.684Z,99.90
2019-01-18T07:47:06.865Z,99.90
2019-01-18T07:49:36.113Z,99.90
2019-01-18T07:52:08.669Z,99.90
2019-01-18T07:54:38.920Z,99.90
2019-01-18T07:57:08.463Z,99.90
2019-01-18T07:59:38.143Z,99.90
2019-01-18T08:02:07.872Z,99.90
2019-01-18T08:04:40.296Z,99.90
2019-01-18T08:07:09.765Z,99.90
2019-01-18T08:09:39.185Z,99.90
2019-01-18T08:12:08.688Z,99.90
2019-01-18T08:14:37.811Z,99.90
2019-01-18T08:17:07.392Z,99.90
2019-01-18T08:19:36.618Z,99.90
2019-01-18T08:22:05.984Z,99.90
2019-01-18T08:24:35.340Z,99.90
2019-01-18T08:27:04.690Z,99.90
2019-01-18T08:29:33.814Z,99.90
2019-01-18T08:32:02.997Z,99.90
2019-01-18T08:34:32.482Z,99.90
2019-01-18T08:37:01.546Z,99.90
2019-01-18T08:39:30.730Z,99.90
2019-01-18T08:42:00.274Z,99.90
2019-01-18T08:44:32.498Z,99.90
2019-01-18T08:47:01.701Z,99.90
2019-01-18T08:49:30.942Z,99.90
2019-01-18T08:52:00.128Z,99.90
2019-01-18T08:54:29.392Z,99.90
2019-01-18T08:56:58.535Z,99.90
2019-01-18T08:59:27.721Z,99.90
2019-01-18T09:01:57.546Z,99.90
2019-01-18T09:04:26.909Z,99.90
2019-01-18T09:06:56.510Z,99.90
2019-01-18T09:09:26.220Z,99.90
2019-01-18T09:11:55.416Z,99.90
2019-01-18T09:14:24.517Z,99.90
2019-01-18T09:16:54.191Z,99.90
2019-01-18T09:19:27.010Z,99.90
2019-01-18T09:21:56.273Z,99.90
2019-01-18T09:24:25.500Z,99.90
2019-01-18T09:26:54.802Z,99.90
2019-01-18T09:29:24.101Z,99.90
2019-01-18T09:31:54.073Z,99.90
2019-01-18T09:34:23.698Z,99.90
2019-01-18T09:39:48.028Z,99.90
2019-01-18T09:42:17.244Z,99.90
2019-01-18T09:44:46.607Z,99.90
2019-01-18T09:47:18.243Z,99.90
2019-01-18T09:49:50.858Z,99.90
2019-01-18T09:52:20.619Z,99.90
2019-01-18T09:54:50.124Z,99.90
2019-01-18T09:57:19.527Z,99.90
2019-01-18T09:59:48.630Z,99.90
2019-01-18T10:02:18.269Z,99.90
2019-01-18T10:04:50.660Z,99.90
2019-01-18T10:07:20.352Z,99.90
2019-01-18T10:10:21.190Z,99.90
2019-01-18T10:12:50.884Z,99.90
2019-01-18T10:15:26.038Z,99.90
2019-01-18T10:18:00.663Z,99.90
2019-01-18T10:20:26.781Z,99.90
2019-01-18T10:22:56.570Z,99.90
2019-01-18T10:25:31.846Z,99.90
2019-01-18T10:28:01.249Z,99.90
2019-01-18T10:30:30.779Z,99.90
2019-01-18T10:33:00.107Z,99.90
2019-01-18T10:45:09.357Z,99.90
2019-01-18T10:47:38.507Z,99.90
2019-01-18T10:50:13.796Z,99.90
2019-01-18T10:52:43.032Z,99.90
2019-01-18T10:55:12.475Z,99.90
2019-01-18T10:57:41.779Z,99.90
2019-01-18T11:00:22.645Z,99.90
2019-01-18T11:02:53.605Z,99.90
2019-01-18T11:05:24.212Z,99.90
2019-01-18T11:07:53.740Z,99.90
2019-01-18T11:10:23.202Z,99.90
2019-01-18T11:13:03.104Z,99.90
2019-01-18T11:15:36.018Z,99.90
2019-01-18T11:18:10.089Z,99.90
2019-01-18T11:20:53.725Z,99.90
2019-01-18T11:23:23.025Z,99.90
2019-01-18T11:25:52.442Z,99.90
2019-01-18T11:28:21.744Z,98.50
2019-01-18T11:30:51.206Z,93.90
2019-01-18T11:33:20.556Z,95.20
2019-01-18T11:36:16.585Z,95.10
2019-01-18T11:41:35.209Z,99.60
2019-01-18T11:44:04.733Z,94.00
2019-01-18T11:46:33.953Z,94.50
2019-01-18T11:49:03.157Z,90.00
2019-01-18T11:51:32.421Z,82.90
2019-01-18T11:54:01.530Z,80.30
2019-01-18T11:56:33.068Z,79.10
2019-01-18T11:59:02.415Z,74.50
2019-01-18T12:01:31.696Z,69.80
2019-01-18T12:04:02.759Z,69.50
2019-01-18T12:06:31.962Z,69.20
2019-01-18T12:09:01.207Z,67.00
2019-01-18T12:11:30.750Z,70.40
2019-01-18T12:14:00.314Z,72.00
2019-01-18T12:16:29.597Z,71.50
2019-01-18T12:18:58.842Z,69.90
2019-01-18T12:21:27.944Z,64.00
2019-01-18T12:23:57.108Z,65.40
2019-01-18T12:26:26.453Z,64.00
2019-01-18T12:28:55.870Z,61.40
2019-01-18T12:31:25.142Z,63.20
2019-01-18T12:33:54.463Z,60.00
2019-01-18T12:36:23.824Z,57.00
2019-01-18T12:38:52.893Z,55.00
2019-01-18T12:41:22.135Z,53.20
2019-01-18T12:43:51.817Z,52.60
2019-01-18T12:46:21.344Z,51.70
2019-01-18T12:48:53.327Z,50.70
2019-01-18T12:51:22.432Z,49.40
2019-01-18T12:53:51.674Z,49.70
2019-01-18T12:56:21.178Z,48.70
2019-01-18T12:58:50.321Z,50.00
2019-01-18T13:01:19.525Z,50.20
2019-01-18T13:03:48.743Z,50.00
2019-01-18T13:06:17.834Z,47.00
2019-01-18T13:08:47.038Z,48.30
2019-01-18T13:11:16.172Z,47.60
2019-01-18T13:13:45.470Z,47.50
2019-01-18T13:16:21.016Z,47.60
2019-01-18T13:18:52.709Z,49.00
2019-01-18T13:21:21.977Z,49.30
2019-01-18T13:23:51.942Z,49.30
2019-01-18T13:26:21.506Z,50.00
2019-01-18T13:28:50.488Z,52.00
2019-01-18T13:31:19.631Z,53.70
2019-01-18T13:33:48.877Z,57.50
2019-01-18T13:36:18.179Z,61.10
2019-01-18T13:38:49.988Z,65.10
2019-01-18T13:41:19.586Z,72.40
2019-01-18T13:43:48.892Z,78.40
2019-01-18T13:46:18.124Z,84.50
2019-01-18T13:48:47.439Z,87.80
2019-01-18T13:51:25.709Z,89.90
2019-01-18T13:54:18.936Z,91.70
2019-01-18T14:02:32.881Z,89.40
2019-01-18T14:05:47.119Z,90.90
2019-01-18T14:08:46.555Z,92.10
2019-01-18T14:18:34.325Z,99.70
2019-01-18T14:37:18.590Z,99.90
2019-01-18T14:40:43.801Z,99.90
2019-01-18T14:43:05.583Z,99.90
2019-01-18T14:45:53.754Z,99.90
2019-01-18T14:54:32.246Z,99.90
2019-01-18T14:57:01.751Z,99.90
2019-01-18T14:59:32.942Z,99.90
2019-01-18T15:02:13.329Z,99.90
2019-01-18T15:04:47.850Z,99.90
2019-01-18T15:07:43.350Z,99.90
2019-01-18T15:10:34.324Z,99.90
2019-01-18T15:13:40.421Z,99.90
2019-01-18T15:15:58.334Z,99.90
2019-01-18T15:18:35.286Z,99.90
2019-01-18T15:21:27.362Z,99.90
2019-01-18T15:24:01.086Z,99.90
2019-01-18T15:26:43.468Z,99.90
2019-01-18T15:29:28.520Z,99.90
2019-01-18T15:32:06.190Z,99.90
2019-01-18T15:34:38.939Z,99.90
2019-01-18T15:37:11.414Z,99.90
2019-01-18T15:39:40.918Z,99.90
2019-01-18T15:47:51.779Z,99.90
2019-01-18T15:51:17.255Z,99.90
2019-01-18T15:57:34.383Z,99.90
2019-01-18T16:00:08.046Z,99.90
2019-01-18T16:03:16.605Z,99.90
2019-01-18T16:06:07.135Z,99.90
2019-01-18T16:08:54.800Z,99.90
2019-01-18T16:11:50.638Z,99.90
2019-01-18T16:14:54.540Z,99.90
2019-01-18T16:20:40.246Z,99.90
2019-01-18T16:27:08.142Z,99.90
2019-01-18T16:30:00.080Z,99.90
2019-01-18T16:36:43.945Z,99.90
2019-01-18T18:16:33.161Z,99.90
2019-01-18T18:27:25.352Z,99.90
2019-01-18T20:18:28.825Z,99.90
2019-01-18T20:21:47.328Z,99.90
2019-01-18T20:25:09.252Z,99.90
2019-01-18T20:31:40.077Z,99.90
2019-01-18T20:37:44.335Z,99.90
2019-01-18T20:41:23.400Z,99.90
2019-01-18T20:44:10.795Z,99.90
2019-01-18T21:29:25.813Z,99.90
2019-01-18T21:32:22.724Z,99.90
2019-01-18T21:41:49.010Z,99.90
2019-01-18T21:45:01.680Z,99.90
2019-01-18T22:40:08.064Z,99.90
2019-01-18T23:16:40.823Z,99.90
2019-01-18T23:19:35.985Z,99.90
